createdAt,value
2023-04-07T00:00:02.498Z,94720.00
2023-04-07T00:01:02.613Z,94718.00
2023-04-07T00:02:02.733Z,94720.00
2023-04-07T00:03:02.740Z,94718.00
2023-04-07T00:04:04.561Z,94718.00
2023-04-07T00:05:02.777Z,94718.00
2023-04-07T00:06:02.712Z,94718.00
2023-04-07T00:07:02.748Z,94718.00
2023-04-07T00:08:02.751Z,94720.00
2023-04-07T00:09:02.774Z,94720.00
2023-04-07T00:10:02.792Z,94720.00
2023-04-07T00:11:02.858Z,94722.00
2023-04-07T00:12:03.695Z,94724.00
2023-04-07T00:13:02.897Z,94724.00
2023-04-07T00:14:02.930Z,94722.00
2023-04-07T00:15:02.953Z,94720.00
2023-04-07T00:16:03.042Z,94718.00
2023-04-07T00:17:02.988Z,94718.00
2023-04-07T00:18:03.166Z,94718.00
2023-04-07T00:19:03.088Z,94717.00
2023-04-07T00:20:03.059Z,94713.00
2023-04-07T00:21:03.092Z,94713.00
2023-04-07T00:22:03.122Z,94713.00
2023-04-07T00:23:03.335Z,94715.00
2023-04-07T00:24:03.723Z,94713.00
2023-04-07T00:25:03.305Z,94713.00
2023-04-07T00:26:03.749Z,94711.00
2023-04-07T00:27:03.237Z,94711.00
2023-04-07T00:28:03.275Z,94711.00
2023-04-07T00:29:03.320Z,94707.00
2023-04-07T00:30:03.394Z,94709.00
2023-04-07T00:31:03.511Z,94707.00
2023-04-07T00:32:03.389Z,94707.00
2023-04-07T00:33:03.433Z,94705.00
2023-04-07T00:34:03.396Z,94703.00
2023-04-07T00:35:03.469Z,94705.00
2023-04-07T00:36:03.560Z,94703.00
2023-04-07T00:37:03.529Z,94699.00
2023-04-07T00:38:03.531Z,94703.00
2023-04-07T00:39:03.603Z,94701.00
2023-04-07T00:40:03.624Z,94697.00
2023-04-07T00:41:03.607Z,94697.00
2023-04-07T00:42:03.612Z,94695.00
2023-04-07T00:43:03.675Z,94697.00
2023-04-07T00:44:03.705Z,94693.00
2023-04-07T00:45:03.764Z,94693.00
2023-04-07T00:46:03.797Z,94691.00
2023-04-07T00:47:03.797Z,94693.00
2023-04-07T00:48:03.819Z,94689.00
2023-04-07T00:49:03.819Z,94689.00
2023-04-07T00:50:03.939Z,94687.00
2023-04-07T00:51:03.899Z,94687.00
2023-04-07T00:52:03.972Z,94687.00
2023-04-07T00:53:03.951Z,94687.00
2023-04-07T00:54:04.010Z,94687.00
2023-04-07T00:55:04.008Z,94685.00
2023-04-07T00:56:04.082Z,94683.00
2023-04-07T00:57:04.046Z,94683.00
2023-04-07T00:58:04.097Z,94683.00
2023-04-07T00:59:04.158Z,94681.00
2023-04-07T01:00:04.139Z,94679.00
2023-04-07T01:01:04.219Z,94679.00
2023-04-07T01:02:04.411Z,94677.00
2023-04-07T01:03:04.530Z,94679.00
2023-04-07T01:04:04.358Z,94677.00
2023-04-07T01:05:04.393Z,94677.00
2023-04-07T01:06:04.369Z,94675.00
2023-04-07T01:07:04.355Z,94673.00
2023-04-07T01:08:04.401Z,94675.00
2023-04-07T01:09:04.438Z,94673.00
2023-04-07T01:10:04.478Z,94671.00
2023-04-07T01:11:04.711Z,94670.00
2023-04-07T01:12:04.511Z,94670.00
2023-04-07T01:13:05.235Z,94668.00
2023-04-07T01:14:04.712Z,94668.00
2023-04-07T01:15:04.644Z,94668.00
2023-04-07T01:16:04.692Z,94668.00
2023-04-07T01:17:04.695Z,94668.00
2023-04-07T01:18:04.730Z,94670.00
2023-04-07T01:19:04.769Z,94671.00
2023-04-07T01:20:04.801Z,94670.00
2023-04-07T01:21:04.845Z,94670.00
2023-04-07T01:22:04.861Z,94671.00
2023-04-07T01:23:04.874Z,94671.00
2023-04-07T01:24:04.935Z,94671.00
2023-04-07T01:25:04.937Z,94671.00
2023-04-07T01:26:05.752Z,94671.00
2023-04-07T01:27:05.005Z,94675.00
2023-04-07T01:28:05.058Z,94673.00
2023-04-07T01:29:05.041Z,94673.00
2023-04-07T01:30:05.117Z,94675.00
2023-04-07T01:31:05.133Z,94673.00
2023-04-07T01:32:05.254Z,94671.00
2023-04-07T01:33:05.266Z,94671.00
2023-04-07T01:34:05.298Z,94673.00
2023-04-07T01:35:05.305Z,94673.00
2023-04-07T01:36:08.254Z,94675.00
2023-04-07T01:37:05.339Z,94677.00
2023-04-07T01:38:05.262Z,94677.00
2023-04-07T01:39:05.269Z,94679.00
2023-04-07T01:40:05.264Z,94677.00
2023-04-07T01:41:05.270Z,94675.00
2023-04-07T01:42:05.250Z,94673.00
2023-04-07T01:43:05.302Z,94677.00
2023-04-07T01:44:05.224Z,94677.00
2023-04-07T01:45:05.248Z,94677.00
2023-04-07T01:46:05.245Z,94679.00
2023-04-07T01:47:05.266Z,94675.00
2023-04-07T01:48:05.844Z,94675.00
2023-04-07T01:49:05.211Z,94673.00
2023-04-07T01:50:05.198Z,94673.00
2023-04-07T01:51:05.179Z,94673.00
2023-04-07T01:52:05.216Z,94670.00
2023-04-07T01:53:05.736Z,94668.00
2023-04-07T01:54:05.207Z,94670.00
2023-04-07T01:55:05.162Z,94670.00
2023-04-07T01:56:05.170Z,94673.00
2023-04-07T01:57:05.137Z,94675.00
2023-04-07T01:58:05.225Z,94675.00
2023-04-07T01:59:05.295Z,94675.00
2023-04-07T02:00:05.349Z,94675.00
2023-04-07T02:01:05.141Z,94675.00
2023-04-07T02:02:05.149Z,94677.00
2023-04-07T02:03:05.332Z,94677.00
2023-04-07T02:04:05.119Z,94679.00
2023-04-07T02:05:05.109Z,94679.00
2023-04-07T02:06:05.058Z,94679.00
2023-04-07T02:07:05.086Z,94679.00
2023-04-07T02:08:05.044Z,94677.00
2023-04-07T02:09:05.074Z,94677.00
2023-04-07T02:10:05.038Z,94671.00
2023-04-07T02:11:05.065Z,94673.00
2023-04-07T02:12:05.023Z,94675.00
2023-04-07T02:13:05.026Z,94675.00
2023-04-07T02:14:05.013Z,94673.00
2023-04-07T02:15:05.089Z,94671.00
2023-04-07T02:16:05.050Z,94671.00
2023-04-07T02:17:05.016Z,94670.00
2023-04-07T02:18:05.024Z,94670.00
2023-04-07T02:19:07.774Z,94665.00
2023-04-07T02:20:05.026Z,94665.00
2023-04-07T02:21:04.968Z,94665.00
2023-04-07T02:22:05.781Z,94663.00
2023-04-07T02:23:04.938Z,94663.00
2023-04-07T02:24:04.950Z,94662.00
2023-04-07T02:25:04.957Z,94663.00
2023-04-07T02:26:04.947Z,94662.00
2023-04-07T02:27:04.942Z,94663.00
2023-04-07T02:28:04.986Z,94660.00
2023-04-07T02:29:04.923Z,94658.00
2023-04-07T02:30:04.916Z,94658.00
2023-04-07T02:31:05.769Z,94656.00
2023-04-07T02:32:05.046Z,94656.00
2023-04-07T02:33:04.879Z,94656.00
2023-04-07T02:34:04.873Z,94654.00
2023-04-07T02:35:04.855Z,94654.00
2023-04-07T02:36:04.890Z,94652.00
2023-04-07T02:37:04.909Z,94652.00
2023-04-07T02:38:04.877Z,94648.00
2023-04-07T02:39:04.863Z,94648.00
2023-04-07T02:40:04.807Z,94648.00
2023-04-07T02:41:04.851Z,94640.00
2023-04-07T02:42:04.836Z,94640.00
2023-04-07T02:43:04.806Z,94640.00
2023-04-07T02:44:04.801Z,94640.00
2023-04-07T02:45:04.798Z,94640.00
2023-04-07T02:46:04.879Z,94636.00
2023-04-07T02:47:04.771Z,94636.00
2023-04-07T02:48:04.806Z,94634.00
2023-04-07T02:49:04.749Z,94634.00
2023-04-07T02:50:04.760Z,94632.00
2023-04-07T02:51:04.918Z,94630.00
2023-04-07T02:52:04.743Z,94632.00
2023-04-07T02:53:04.744Z,94630.00
2023-04-07T02:54:04.744Z,94628.00
2023-04-07T02:55:04.725Z,94628.00
2023-04-07T02:56:04.756Z,94624.00
2023-04-07T02:57:04.860Z,94626.00
2023-04-07T02:58:04.702Z,94622.00
2023-04-07T02:59:04.686Z,94622.00
2023-04-07T03:00:04.675Z,94626.00
2023-04-07T03:01:04.767Z,94626.00
2023-04-07T03:02:04.771Z,94628.00
2023-04-07T03:03:04.811Z,94622.00
2023-04-07T03:04:04.769Z,94622.00
2023-04-07T03:05:04.634Z,94624.00
2023-04-07T03:06:04.765Z,94622.00
2023-04-07T03:07:04.714Z,94626.00
2023-04-07T03:08:04.738Z,94624.00
2023-04-07T03:09:04.805Z,94624.00
2023-04-07T03:10:04.833Z,94622.00
2023-04-07T03:11:04.905Z,94622.00
2023-04-07T03:12:04.923Z,94622.00
2023-04-07T03:13:04.943Z,94622.00
2023-04-07T03:14:04.980Z,94622.00
2023-04-07T03:15:05.019Z,94622.00
2023-04-07T03:16:05.154Z,94620.00
2023-04-07T03:17:05.244Z,94620.00
2023-04-07T03:18:05.216Z,94620.00
2023-04-07T03:19:05.157Z,94620.00
2023-04-07T03:20:05.173Z,94624.00
2023-04-07T03:21:05.248Z,94622.00
2023-04-07T03:22:05.267Z,94620.00
2023-04-07T03:23:05.295Z,94618.00
2023-04-07T03:24:05.300Z,94618.00
2023-04-07T03:25:05.376Z,94618.00
2023-04-07T03:26:05.384Z,94618.00
2023-04-07T03:27:06.837Z,94618.00
2023-04-07T03:28:05.421Z,94617.00
2023-04-07T03:29:05.499Z,94617.00
2023-04-07T03:30:05.510Z,94615.00
2023-04-07T03:31:05.615Z,94613.00
2023-04-07T03:32:05.545Z,94613.00
2023-04-07T03:33:06.328Z,94613.00
2023-04-07T03:34:05.630Z,94611.00
2023-04-07T03:35:05.654Z,94611.00
2023-04-07T03:36:05.780Z,94611.00
2023-04-07T03:37:05.749Z,94611.00
2023-04-07T03:38:05.766Z,94613.00
2023-04-07T03:39:05.785Z,94611.00
2023-04-07T03:40:05.864Z,94609.00
2023-04-07T03:41:05.870Z,94607.00
2023-04-07T03:42:05.888Z,94609.00
2023-04-07T03:43:05.910Z,94609.00
2023-04-07T03:44:05.944Z,94605.00
2023-04-07T03:45:08.854Z,94607.00
2023-04-07T03:46:06.043Z,94607.00
2023-04-07T03:47:05.986Z,94607.00
2023-04-07T03:48:05.995Z,94607.00
2023-04-07T03:49:05.969Z,94605.00
2023-04-07T03:50:05.933Z,94609.00
2023-04-07T03:51:05.951Z,94607.00
2023-04-07T03:52:06.865Z,94605.00
2023-04-07T03:53:06.813Z,94607.00
2023-04-07T03:54:06.785Z,94607.00
2023-04-07T03:55:05.873Z,94603.00
2023-04-07T03:56:05.900Z,94605.00
2023-04-07T03:57:05.902Z,94605.00
2023-04-07T03:58:05.879Z,94605.00
2023-04-07T03:59:05.899Z,94601.00
2023-04-07T04:00:05.867Z,94605.00
2023-04-07T04:01:05.881Z,94605.00
2023-04-07T04:02:05.928Z,94605.00
2023-04-07T04:03:06.044Z,94603.00
2023-04-07T04:04:06.049Z,94605.00
2023-04-07T04:05:05.858Z,94603.00
2023-04-07T04:06:05.826Z,94603.00
2023-04-07T04:07:05.896Z,94603.00
2023-04-07T04:08:05.813Z,94603.00
2023-04-07T04:09:05.829Z,94603.00
2023-04-07T04:10:05.797Z,94603.00
2023-04-07T04:11:05.829Z,94601.00
2023-04-07T04:12:05.800Z,94601.00
2023-04-07T04:13:05.798Z,94601.00
2023-04-07T04:14:05.776Z,94599.00
2023-04-07T04:15:05.791Z,94597.00
2023-04-07T04:16:05.777Z,94597.00
2023-04-07T04:17:05.922Z,94595.00
2023-04-07T04:18:05.778Z,94595.00
2023-04-07T04:19:05.717Z,94595.00
2023-04-07T04:20:05.732Z,94593.00
2023-04-07T04:21:05.734Z,94593.00
2023-04-07T04:22:05.717Z,94591.00
2023-04-07T04:23:05.691Z,94591.00
2023-04-07T04:24:05.704Z,94587.00
2023-04-07T04:25:05.715Z,94589.00
2023-04-07T04:26:05.738Z,94587.00
2023-04-07T04:27:05.708Z,94585.00
2023-04-07T04:28:05.675Z,94587.00
2023-04-07T04:29:05.651Z,94587.00
2023-04-07T04:30:05.643Z,94585.00
2023-04-07T04:31:05.804Z,94587.00
2023-04-07T04:32:05.685Z,94583.00
2023-04-07T04:33:05.723Z,94583.00
2023-04-07T04:34:05.797Z,94583.00
2023-04-07T04:35:05.795Z,94583.00
2023-04-07T04:36:05.823Z,94585.00
2023-04-07T04:37:05.931Z,94581.00
2023-04-07T04:38:05.862Z,94581.00
2023-04-07T04:39:05.884Z,94583.00
2023-04-07T04:40:05.940Z,94587.00
2023-04-07T04:41:05.973Z,94583.00
2023-04-07T04:42:06.034Z,94585.00
2023-04-07T04:43:06.009Z,94583.00
2023-04-07T04:44:06.121Z,94583.00
2023-04-07T04:45:06.084Z,94581.00
2023-04-07T04:46:06.146Z,94581.00
2023-04-07T04:47:06.202Z,94579.00
2023-04-07T04:48:06.211Z,94579.00
2023-04-07T04:49:06.153Z,94581.00
2023-04-07T04:50:06.224Z,94581.00
2023-04-07T04:51:06.824Z,94583.00
2023-04-07T04:52:06.842Z,94581.00
2023-04-07T04:53:06.303Z,94581.00
2023-04-07T04:54:06.435Z,94585.00
2023-04-07T04:55:06.400Z,94583.00
2023-04-07T04:56:07.330Z,94583.00
2023-04-07T04:57:06.425Z,94583.00
2023-04-07T04:58:06.444Z,94585.00
2023-04-07T04:59:06.517Z,94585.00
2023-04-07T05:00:06.478Z,94587.00
2023-04-07T05:01:06.704Z,94587.00
2023-04-07T05:02:06.723Z,94585.00
2023-04-07T05:03:07.627Z,94585.00
2023-04-07T05:04:06.775Z,94585.00
2023-04-07T05:05:06.752Z,94585.00
2023-04-07T05:06:06.728Z,94583.00
2023-04-07T05:07:06.696Z,94579.00
2023-04-07T05:08:06.737Z,94583.00
2023-04-07T05:09:06.748Z,94581.00
2023-04-07T05:10:06.770Z,94581.00
2023-04-07T05:11:06.844Z,94583.00
2023-04-07T05:12:06.866Z,94581.00
2023-04-07T05:13:06.877Z,94581.00
2023-04-07T05:14:06.896Z,94581.00
2023-04-07T05:15:06.912Z,94583.00
2023-04-07T05:16:07.001Z,94581.00
2023-04-07T05:17:06.982Z,94579.00
2023-04-07T05:18:07.008Z,94581.00
2023-04-07T05:19:07.025Z,94583.00
2023-04-07T05:20:08.849Z,94579.00
2023-04-07T05:21:07.145Z,94581.00
2023-04-07T05:22:07.160Z,94583.00
2023-04-07T05:23:07.274Z,94581.00
2023-04-07T05:24:09.217Z,94583.00
2023-04-07T05:25:07.223Z,94583.00
2023-04-07T05:26:07.273Z,94585.00
2023-04-07T05:27:07.266Z,94585.00
2023-04-07T05:28:07.299Z,94583.00
2023-04-07T05:29:07.364Z,94589.00
2023-04-07T05:30:07.354Z,94587.00
2023-04-07T05:31:08.032Z,94587.00
2023-04-07T05:32:07.443Z,94589.00
2023-04-07T05:33:07.521Z,94587.00
2023-04-07T05:34:07.521Z,94587.00
2023-04-07T05:35:07.518Z,94587.00
2023-04-07T05:36:07.567Z,94587.00
2023-04-07T05:37:07.574Z,94587.00
2023-04-07T05:38:07.626Z,94585.00
2023-04-07T05:39:07.651Z,94587.00
2023-04-07T05:40:07.688Z,94585.00
2023-04-07T05:41:07.836Z,94587.00
2023-04-07T05:42:07.734Z,94587.00
2023-04-07T05:43:07.841Z,94583.00
2023-04-07T05:44:07.792Z,94583.00
2023-04-07T05:45:07.819Z,94585.00
2023-04-07T05:46:07.916Z,94583.00
2023-04-07T05:47:08.866Z,94581.00
2023-04-07T05:48:07.923Z,94579.00
2023-04-07T05:50:08.935Z,94579.00
2023-04-07T05:51:08.861Z,94579.00
2023-04-07T05:52:07.954Z,94579.00
2023-04-07T05:53:07.963Z,94579.00
2023-04-07T05:54:09.828Z,94581.00
2023-04-07T05:55:07.942Z,94581.00
2023-04-07T05:56:07.879Z,94581.00
2023-04-07T05:57:08.852Z,94581.00
2023-04-07T05:58:07.894Z,94581.00
2023-04-07T05:59:07.867Z,94583.00
2023-04-07T06:00:07.832Z,94583.00
2023-04-07T06:01:07.872Z,94585.00
2023-04-07T06:02:07.868Z,94583.00
2023-04-07T06:03:08.061Z,94581.00
2023-04-07T06:04:07.929Z,94587.00
2023-04-07T06:05:07.923Z,94587.00
2023-04-07T06:06:07.972Z,94587.00
2023-04-07T06:07:08.013Z,94589.00
2023-04-07T06:08:08.047Z,94587.00
2023-04-07T06:09:08.368Z,94593.00
2023-04-07T06:10:08.023Z,94587.00
2023-04-07T06:11:08.115Z,94591.00
2023-04-07T06:12:08.843Z,94589.00
2023-04-07T06:13:08.137Z,94591.00
2023-04-07T06:14:08.861Z,94593.00
2023-04-07T06:15:08.166Z,94593.00
2023-04-07T06:16:08.231Z,94593.00
2023-04-07T06:17:08.237Z,94593.00
2023-04-07T06:18:08.230Z,94593.00
2023-04-07T06:19:08.327Z,94595.00
2023-04-07T06:20:08.307Z,94593.00
2023-04-07T06:21:08.350Z,94595.00
2023-04-07T06:22:08.362Z,94595.00
2023-04-07T06:23:08.469Z,94595.00
2023-04-07T06:24:09.416Z,94597.00
2023-04-07T06:25:08.449Z,94595.00
2023-04-07T06:26:08.481Z,94595.00
2023-04-07T06:27:08.490Z,94593.00
2023-04-07T06:28:09.335Z,94593.00
2023-04-07T06:29:08.545Z,94591.00
2023-04-07T06:30:08.612Z,94593.00
2023-04-07T06:31:08.856Z,94591.00
2023-04-07T06:32:08.634Z,94587.00
2023-04-07T06:33:08.712Z,94589.00
2023-04-07T06:34:08.740Z,94589.00
2023-04-07T06:35:08.736Z,94589.00
2023-04-07T06:36:08.774Z,94587.00
2023-04-07T06:37:08.872Z,94589.00
2023-04-07T06:38:08.867Z,94589.00
2023-04-07T06:39:08.877Z,94587.00
2023-04-07T06:40:08.907Z,94585.00
2023-04-07T06:41:08.965Z,94585.00
2023-04-07T06:42:08.915Z,94583.00
2023-04-07T06:43:08.987Z,94585.00
2023-04-07T06:44:09.692Z,94581.00
2023-04-07T06:45:08.987Z,94581.00
2023-04-07T06:46:09.086Z,94581.00
2023-04-07T06:47:09.098Z,94579.00
2023-04-07T06:48:09.183Z,94579.00
2023-04-07T06:49:09.098Z,94577.00
2023-04-07T06:50:09.127Z,94579.00
2023-04-07T06:51:09.377Z,94579.00
2023-04-07T06:52:09.875Z,94581.00
2023-04-07T06:53:09.248Z,94581.00
2023-04-07T06:54:09.258Z,94583.00
2023-04-07T06:55:09.270Z,94583.00
2023-04-07T06:56:09.300Z,94581.00
2023-04-07T06:57:09.361Z,94585.00
2023-04-07T06:58:10.352Z,94583.00
2023-04-07T06:59:09.387Z,94579.00
2023-04-07T07:00:09.431Z,94577.00
2023-04-07T07:01:09.901Z,94577.00
2023-04-07T07:02:09.656Z,94577.00
2023-04-07T07:03:09.760Z,94575.00
2023-04-07T07:04:09.694Z,94573.00
2023-04-07T07:05:09.566Z,94575.00
2023-04-07T07:06:09.897Z,94571.00
2023-04-07T07:07:09.645Z,94571.00
2023-04-07T07:08:10.398Z,94571.00
2023-04-07T07:09:09.777Z,94568.00
2023-04-07T07:10:09.716Z,94566.00
2023-04-07T07:11:09.723Z,94566.00
2023-04-07T07:12:09.740Z,94564.00
2023-04-07T07:13:09.783Z,94562.00
2023-04-07T07:14:09.840Z,94560.00
2023-04-07T07:15:09.900Z,94558.00
2023-04-07T07:16:09.898Z,94556.00
2023-04-07T07:17:10.871Z,94558.00
2023-04-07T07:18:09.909Z,94562.00
2023-04-07T07:19:09.937Z,94558.00
2023-04-07T07:20:09.944Z,94562.00
2023-04-07T07:21:10.071Z,94558.00
2023-04-07T07:22:09.980Z,94560.00
2023-04-07T07:23:09.997Z,94562.00
2023-04-07T07:24:10.021Z,94562.00
2023-04-07T07:25:10.053Z,94558.00
2023-04-07T07:26:10.062Z,94560.00
2023-04-07T07:27:10.088Z,94558.00
2023-04-07T07:28:10.152Z,94558.00
2023-04-07T07:29:10.884Z,94556.00
2023-04-07T07:30:10.133Z,94558.00
2023-04-07T07:31:10.235Z,94556.00
2023-04-07T07:32:12.928Z,94556.00
2023-04-07T07:33:10.246Z,94556.00
2023-04-07T07:34:10.209Z,94552.00
2023-04-07T07:35:10.233Z,94556.00
2023-04-07T07:36:10.211Z,94556.00
2023-04-07T07:37:10.181Z,94558.00
2023-04-07T07:38:10.172Z,94554.00
2023-04-07T07:39:10.240Z,94554.00
2023-04-07T07:40:10.176Z,94554.00
2023-04-07T07:41:10.177Z,94548.00
2023-04-07T07:42:10.147Z,94550.00
2023-04-07T07:43:10.180Z,94546.00
2023-04-07T07:44:10.188Z,94548.00
2023-04-07T07:45:10.216Z,94548.00
2023-04-07T07:46:10.207Z,94546.00
2023-04-07T07:47:10.851Z,94544.00
2023-04-07T07:48:10.105Z,94542.00
2023-04-07T07:49:10.401Z,94540.00
2023-04-07T07:50:10.088Z,94538.00
2023-04-07T07:51:10.103Z,94534.00
2023-04-07T07:52:10.462Z,94536.00
2023-04-07T07:53:10.102Z,94534.00
2023-04-07T07:54:10.064Z,94534.00
2023-04-07T07:55:10.093Z,94536.00
2023-04-07T07:56:10.107Z,94534.00
2023-04-07T07:57:10.068Z,94534.00
2023-04-07T07:58:10.138Z,94530.00
2023-04-07T07:59:10.421Z,94528.00
2023-04-07T08:00:10.896Z,94528.00
2023-04-07T08:01:10.115Z,94526.00
2023-04-07T08:02:10.131Z,94524.00
2023-04-07T08:03:10.074Z,94523.00
2023-04-07T08:04:10.194Z,94524.00
2023-04-07T08:05:10.010Z,94523.00
2023-04-07T08:06:09.984Z,94521.00
2023-04-07T08:07:09.955Z,94524.00
2023-04-07T08:08:10.030Z,94521.00
2023-04-07T08:09:09.993Z,94521.00
2023-04-07T08:10:09.965Z,94517.00
2023-04-07T08:11:09.958Z,94517.00
2023-04-07T08:12:09.930Z,94519.00
2023-04-07T08:13:10.006Z,94515.00
2023-04-07T08:14:10.057Z,94513.00
2023-04-07T08:15:09.950Z,94517.00
2023-04-07T08:16:10.017Z,94513.00
2023-04-07T08:17:10.897Z,94513.00
2023-04-07T08:18:09.987Z,94509.00
2023-04-07T08:19:09.911Z,94509.00
2023-04-07T08:20:09.887Z,94509.00
2023-04-07T08:21:09.903Z,94511.00
2023-04-07T08:22:09.872Z,94509.00
2023-04-07T08:23:09.894Z,94509.00
2023-04-07T08:24:14.374Z,94507.00
2023-04-07T08:25:09.881Z,94505.00
2023-04-07T08:26:09.845Z,94507.00
2023-04-07T08:27:09.864Z,94505.00
2023-04-07T08:28:09.825Z,94501.00
2023-04-07T08:29:09.863Z,94501.00
2023-04-07T08:30:09.815Z,94503.00
2023-04-07T08:31:09.817Z,94503.00
2023-04-07T08:32:09.793Z,94503.00
2023-04-07T08:33:10.392Z,94501.00
2023-04-07T08:34:09.829Z,94501.00
2023-04-07T08:35:10.466Z,94499.00
2023-04-07T08:36:09.779Z,94497.00
2023-04-07T08:37:09.788Z,94491.00
2023-04-07T08:38:09.766Z,94493.00
2023-04-07T08:39:09.876Z,94491.00
2023-04-07T08:40:09.799Z,94485.00
2023-04-07T08:41:09.767Z,94487.00
2023-04-07T08:42:09.757Z,94485.00
2023-04-07T08:43:09.821Z,94481.00
2023-04-07T08:44:10.373Z,94481.00
2023-04-07T08:45:09.742Z,94481.00
2023-04-07T08:46:09.702Z,94479.00
2023-04-07T08:47:09.789Z,94479.00
2023-04-07T08:48:09.692Z,94477.00
2023-04-07T08:49:09.701Z,94477.00
2023-04-07T08:50:09.667Z,94477.00
2023-04-07T08:51:09.668Z,94476.00
2023-04-07T08:52:09.742Z,94474.00
2023-04-07T08:53:09.638Z,94472.00
2023-04-07T08:54:09.896Z,94472.00
2023-04-07T08:55:09.654Z,94470.00
2023-04-07T08:56:09.623Z,94470.00
2023-04-07T08:57:09.656Z,94468.00
2023-04-07T08:58:09.636Z,94468.00
2023-04-07T08:59:09.631Z,94470.00
2023-04-07T09:00:09.676Z,94466.00
2023-04-07T09:01:09.649Z,94470.00
2023-04-07T09:02:09.711Z,94470.00
2023-04-07T09:03:11.544Z,94462.00
2023-04-07T09:04:10.009Z,94464.00
2023-04-07T09:05:09.723Z,94462.00
2023-04-07T09:06:09.724Z,94460.00
2023-04-07T09:07:09.789Z,94458.00
2023-04-07T09:08:09.800Z,94458.00
2023-04-07T09:09:09.793Z,94456.00
2023-04-07T09:10:09.798Z,94452.00
2023-04-07T09:11:09.806Z,94450.00
2023-04-07T09:12:09.822Z,94446.00
2023-04-07T09:13:09.890Z,94448.00
2023-04-07T09:14:09.942Z,94444.00
2023-04-07T09:15:09.903Z,94440.00
2023-04-07T09:16:09.978Z,94438.00
2023-04-07T09:17:09.914Z,94438.00
2023-04-07T09:18:09.998Z,94438.00
2023-04-07T09:19:10.051Z,94436.00
2023-04-07T09:20:09.974Z,94436.00
2023-04-07T09:21:09.998Z,94434.00
2023-04-07T09:22:09.980Z,94427.00
2023-04-07T09:23:10.051Z,94427.00
2023-04-07T09:24:10.024Z,94425.00
2023-04-07T09:25:10.915Z,94429.00
2023-04-07T09:26:10.051Z,94423.00
2023-04-07T09:27:10.101Z,94425.00
2023-04-07T09:28:10.140Z,94423.00
2023-04-07T09:29:10.108Z,94419.00
2023-04-07T09:30:10.152Z,94415.00
2023-04-07T09:31:10.224Z,94413.00
2023-04-07T09:32:10.195Z,94413.00
2023-04-07T09:33:10.398Z,94411.00
2023-04-07T09:34:10.204Z,94411.00
2023-04-07T09:35:10.253Z,94409.00
2023-04-07T09:36:10.262Z,94407.00
2023-04-07T09:37:10.215Z,94407.00
2023-04-07T09:38:10.257Z,94407.00
2023-04-07T09:39:10.325Z,94403.00
2023-04-07T09:40:10.443Z,94399.00
2023-04-07T09:41:10.318Z,94399.00
2023-04-07T09:42:10.330Z,94397.00
2023-04-07T09:43:10.349Z,94397.00
2023-04-07T09:44:10.316Z,94395.00
2023-04-07T09:45:10.360Z,94391.00
2023-04-07T09:46:10.371Z,94384.00
2023-04-07T09:47:10.424Z,94384.00
2023-04-07T09:48:10.387Z,94384.00
2023-04-07T09:49:10.411Z,94380.00
2023-04-07T09:50:11.404Z,94378.00
2023-04-07T09:51:10.477Z,94380.00
2023-04-07T09:52:10.467Z,94374.00
2023-04-07T09:53:10.434Z,94372.00
2023-04-07T09:54:10.453Z,94368.00
2023-04-07T09:55:10.502Z,94366.00
2023-04-07T09:56:10.529Z,94364.00
2023-04-07T09:57:10.646Z,94362.00
2023-04-07T09:58:10.558Z,94362.00
2023-04-07T09:59:10.522Z,94362.00
2023-04-07T10:00:11.481Z,94360.00
2023-04-07T10:01:11.466Z,94358.00
2023-04-07T10:02:10.803Z,94358.00
2023-04-07T10:03:10.636Z,94358.00
2023-04-07T10:04:10.744Z,94354.00
2023-04-07T10:05:10.632Z,94356.00
2023-04-07T10:06:10.629Z,94356.00
2023-04-07T10:07:10.656Z,94350.00
2023-04-07T10:08:10.687Z,94352.00
2023-04-07T10:09:10.759Z,94350.00
2023-04-07T10:10:10.721Z,94346.00
2023-04-07T10:11:10.704Z,94342.00
2023-04-07T10:12:10.699Z,94342.00
2023-04-07T10:13:10.774Z,94338.00
2023-04-07T10:14:10.768Z,94338.00
2023-04-07T10:15:11.422Z,94338.00
2023-04-07T10:16:10.823Z,94337.00
2023-04-07T10:17:10.786Z,94337.00
2023-04-07T10:18:10.832Z,94337.00
2023-04-07T10:19:10.886Z,94337.00
2023-04-07T10:20:10.856Z,94335.00
2023-04-07T10:21:10.905Z,94335.00
2023-04-07T10:22:10.887Z,94337.00
2023-04-07T10:23:10.913Z,94335.00
2023-04-07T10:24:10.926Z,94333.00
2023-04-07T10:25:10.920Z,94333.00
2023-04-07T10:26:10.965Z,94327.00
2023-04-07T10:27:10.960Z,94327.00
2023-04-07T10:28:11.002Z,94327.00
2023-04-07T10:29:11.029Z,94325.00
2023-04-07T10:30:11.025Z,94325.00
2023-04-07T10:31:11.573Z,94323.00
2023-04-07T10:32:11.179Z,94321.00
2023-04-07T10:33:11.252Z,94321.00
2023-04-07T10:34:11.094Z,94323.00
2023-04-07T10:35:11.138Z,94321.00
2023-04-07T10:36:11.318Z,94319.00
2023-04-07T10:37:11.118Z,94317.00
2023-04-07T10:38:11.202Z,94315.00
2023-04-07T10:39:11.166Z,94315.00
2023-04-07T10:40:11.177Z,94311.00
2023-04-07T10:41:11.190Z,94309.00
2023-04-07T10:42:11.180Z,94311.00
2023-04-07T10:43:11.279Z,94309.00
2023-04-07T10:44:11.298Z,94309.00
2023-04-07T10:45:11.941Z,94305.00
2023-04-07T10:46:11.259Z,94303.00
2023-04-07T10:47:11.195Z,94305.00
2023-04-07T10:48:11.276Z,94301.00
2023-04-07T10:49:11.274Z,94299.00
2023-04-07T10:50:11.268Z,94299.00
2023-04-07T10:51:11.308Z,94299.00
2023-04-07T10:52:11.270Z,94297.00
2023-04-07T10:53:11.274Z,94295.00
2023-04-07T10:54:11.293Z,94297.00
2023-04-07T10:55:11.362Z,94295.00
2023-04-07T10:56:11.962Z,94293.00
2023-04-07T10:57:11.327Z,94293.00
2023-04-07T10:58:11.382Z,94289.00
2023-04-07T10:59:11.333Z,94287.00
2023-04-07T11:00:11.420Z,94287.00
2023-04-07T11:01:11.381Z,94285.00
2023-04-07T11:02:11.502Z,94285.00
2023-04-07T11:03:11.583Z,94282.00
2023-04-07T11:04:11.497Z,94282.00
2023-04-07T11:05:11.433Z,94282.00
2023-04-07T11:06:11.394Z,94282.00
2023-04-07T11:07:11.406Z,94280.00
2023-04-07T11:08:12.459Z,94280.00
2023-04-07T11:09:11.473Z,94278.00
2023-04-07T11:10:11.555Z,94276.00
2023-04-07T11:11:11.596Z,94274.00
2023-04-07T11:12:11.574Z,94274.00
2023-04-07T11:13:11.552Z,94272.00
2023-04-07T11:14:11.526Z,94272.00
2023-04-07T11:15:11.549Z,94268.00
2023-04-07T11:16:11.694Z,94266.00
2023-04-07T11:17:11.553Z,94264.00
2023-04-07T11:18:11.674Z,94264.00
2023-04-07T11:19:11.613Z,94264.00
2023-04-07T11:20:11.621Z,94260.00
2023-04-07T11:21:11.626Z,94262.00
2023-04-07T11:22:22.575Z,94260.00
2023-04-07T11:23:12.654Z,94260.00
2023-04-07T11:24:11.633Z,94260.00
2023-04-07T11:25:11.600Z,94256.00
2023-04-07T11:26:11.681Z,94254.00
2023-04-07T11:27:11.618Z,94252.00
2023-04-07T11:28:11.607Z,94250.00
2023-04-07T11:29:11.567Z,94250.00
2023-04-07T11:30:11.577Z,94250.00
2023-04-07T11:31:11.640Z,94250.00
2023-04-07T11:32:11.557Z,94250.00
2023-04-07T11:33:11.540Z,94248.00
2023-04-07T11:34:11.547Z,94248.00
2023-04-07T11:35:11.517Z,94244.00
2023-04-07T11:36:11.550Z,94244.00
2023-04-07T11:37:11.552Z,94240.00
2023-04-07T11:38:11.544Z,94240.00
2023-04-07T11:39:11.534Z,94238.00
2023-04-07T11:40:11.522Z,94238.00
2023-04-07T11:41:11.540Z,94235.00
2023-04-07T11:42:11.492Z,94236.00
2023-04-07T11:43:11.592Z,94233.00
2023-04-07T11:44:11.497Z,94235.00
2023-04-07T11:45:11.501Z,94235.00